Time;durP1;ratioP1;P1;durP2;ratioP2;P2;SDS_P1;SDS_P2;PMS_P1;PMS_P2;Temp;Humidity;BMP_temperature;BMP_pressure;BME280_temperature;BME280_humidity;BME280_pressure;Samples;Min_cycle;Max_cycle;Signal;HPM_P1;HPM_P2
2021/07/06 00:01:47;;;;;;;25.40;14.18;;;18.80;99.90;;;;;;4977014;28;20174;-87
2021/07/06 00:04:13;;;;;;;20.83;15.13;;;18.80;99.90;;;;;;4960180;28;20273;-88
2021/07/06 00:06:39;;;;;;;21.55;14.15;;;;;;;;;;4977039;28;20179;-88
2021/07/06 00:09:05;;;;;;;22.05;15.00;;;18.70;99.90;;;;;;4976230;28;20194;-88
2021/07/06 00:11:31;;;;;;;18.55;14.32;;;;;;;;;;4976679;28;20182;-87
2021/07/06 00:13:57;;;;;;;24.05;14.55;;;18.60;99.90;;;;;;4976205;28;20186;-88
2021/07/06 00:16:23;;;;;;;25.10;15.00;;;18.50;99.90;;;;;;4977397;28;20603;-88
2021/07/06 00:18:48;;;;;;;23.75;15.35;;;15.90;99.90;;;;;;4975592;28;20531;-88
2021/07/06 00:21:14;;;;;;;24.52;16.38;;;18.50;99.90;;;;;;4977058;28;20171;-88
2021/07/06 00:23:40;;;;;;;26.02;18.83;;;18.60;99.90;;;;;;4976694;28;20170;-88
2021/07/06 00:26:06;;;;;;;25.08;17.08;;;18.30;99.90;;;;;;4975742;28;20191;-89
2021/07/06 00:28:33;;;;;;;21.52;16.77;;;18.30;99.90;;;;;;4976244;28;20183;-88
2021/07/06 00:30:59;;;;;;;23.13;16.40;;;18.40;99.90;;;;;;4975838;28;20187;-88
2021/07/06 00:33:29;;;;;;;19.55;15.40;;;18.40;99.90;;;;;;4977046;28;20254;-88
2021/07/06 00:35:58;;;;;;;23.23;16.27;;;18.10;99.90;;;;;;4975663;28;20182;-88
2021/07/06 00:38:25;;;;;;;23.80;16.70;;;18.30;99.90;;;;;;4975363;28;20305;-88
2021/07/06 00:40:54;;;;;;;26.55;16.83;;;18.30;99.90;;;;;;4976055;28;20697;-88
2021/07/06 00:43:21;;;;;;;20.40;16.63;;;18.20;99.90;;;;;;4975482;28;20179;-88
2021/07/06 00:45:48;;;;;;;23.58;16.10;;;18.20;99.90;;;;;;4974454;28;20293;-88
2021/07/06 00:48:14;;;;;;;20.50;15.68;;;18.10;99.90;;;;;;4974869;28;20194;-87
2021/07/06 00:50:40;;;;;;;22.80;16.02;;;18.20;99.90;;;;;;4975142;28;20183;-88
2021/07/06 00:53:06;;;;;;;27.02;15.48;;;18.20;99.90;;;;;;4975156;28;20591;-88
2021/07/06 00:55:31;;;;;;;22.75;15.00;;;18.10;99.90;;;;;;4975992;28;20185;-87
2021/07/06 00:57:57;;;;;;;23.23;16.55;;;18.10;99.90;;;;;;4974967;28;20214;-88
2021/07/06 01:00:25;;;;;;;18.40;15.23;;;18.00;99.90;;;;;;4976251;28;20175;-89
2021/07/06 01:02:53;;;;;;;24.83;16.70;;;18.00;99.90;;;;;;4975627;28;20589;-88
2021/07/06 01:05:21;;;;;;;21.85;15.82;;;18.00;99.90;;;;;;4974708;28;20174;-88
2021/07/06 01:07:47;;;;;;;26.88;16.73;;;17.90;99.90;;;;;;4975325;28;20202;-88
2021/07/06 01:10:15;;;;;;;24.50;16.73;;;17.90;99.90;;;;;;4976240;28;20238;-88
2021/07/06 01:12:45;;;;;;;25.25;15.13;;;18.00;99.90;;;;;;4975342;28;20178;-88
2021/07/06 01:15:17;;;;;;;19.55;15.40;;;18.00;99.90;;;;;;4975929;28;20214;-87
2021/07/06 01:17:44;;;;;;;22.02;15.60;;;18.00;99.90;;;;;;4974341;28;20548;-88
2021/07/06 01:20:14;;;;;;;20.92;15.43;;;18.00;99.90;;;;;;4974459;28;20186;-87
2021/07/06 01:22:41;;;;;;;23.15;15.45;;;18.00;99.90;;;;;;4975129;28;20182;-87
2021/07/06 01:25:08;;;;;;;20.85;15.02;;;17.90;99.90;;;;;;4975398;28;20174;-88
2021/07/06 01:27:39;;;;;;;23.40;15.40;;;17.90;99.90;;;;;;4973999;28;20195;-87
2021/07/06 01:30:08;;;;;;;20.40;14.77;;;17.90;99.90;;;;;;4975506;28;20175;-87
2021/07/06 01:32:34;;;;;;;24.20;15.32;;;17.80;99.90;;;;;;4975183;28;20258;-87
2021/07/06 01:35:00;;;;;;;22.77;16.05;;;17.80;99.90;;;;;;4975477;28;20257;-88
2021/07/06 01:37:26;;;;;;;23.75;15.23;;;17.80;99.90;;;;;;4975269;28;20638;-88
2021/07/06 01:39:51;;;;;;;19.25;13.95;;;17.80;99.90;;;;;;4973908;28;20214;-87
2021/07/06 01:42:22;;;;;;;27.42;16.67;;;17.70;99.90;;;;;;4958173;28;20190;-88
2021/07/06 01:45:02;;;;;;;24.20;14.98;;;17.70;99.90;;;;;;4973965;28;20544;-87
2021/07/06 01:47:28;;;;;;;19.38;14.82;;;17.70;99.90;;;;;;4974149;28;20197;-88
2021/07/06 01:49:53;;;;;;;22.73;15.20;;;17.70;99.90;;;;;;4973781;28;20183;-88
2021/07/06 01:52:19;;;;;;;24.10;14.95;;;17.60;99.90;;;;;;4973968;28;20228;-88
2021/07/06 01:54:45;;;;;;;29.85;16.05;;;17.60;99.90;;;;;;4973609;28;20218;-88
2021/07/06 01:57:13;;;;;;;22.65;14.73;;;17.50;99.90;;;;;;4956611;28;20218;-87
2021/07/06 01:59:39;;;;;;;19.55;14.32;;;17.50;99.90;;;;;;4973569;28;20179;-87
2021/07/06 02:02:04;;;;;;;23.35;15.35;;;17.60;99.90;;;;;;4973554;28;20183;-88
2021/07/06 02:04:30;;;;;;;23.45;15.23;;;17.60;99.90;;;;;;4975128;28;20613;-88
2021/07/06 02:06:56;;;;;;;25.33;15.63;;;17.50;99.90;;;;;;4973551;28;20446;-87
2021/07/06 02:09:22;;;;;;;22.60;15.85;;;17.50;99.90;;;;;;4973461;28;20178;-88
2021/07/06 02:11:47;;;;;;;27.67;16.52;;;17.50;99.90;;;;;;4974337;28;20190;-87
2021/07/06 02:14:15;;;;;;;25.58;16.90;;;17.50;99.90;;;;;;4941652;28;20186;-87
2021/07/06 02:16:41;;;;;;;24.70;16.85;;;17.40;99.90;;;;;;4975824;28;20206;-87
2021/07/06 02:19:06;;;;;;;33.83;16.60;;;17.50;99.90;;;;;;4973694;28;20174;-88
2021/07/06 02:21:32;;;;;;;27.35;16.95;;;17.50;99.90;;;;;;4973570;28;20202;-88
2021/07/06 02:23:58;;;;;;;28.05;17.02;;;17.60;99.90;;;;;;4957003;28;20183;-88
2021/07/06 02:26:24;;;;;;;25.90;16.02;;;;;;;;;;4973337;28;20233;-87
2021/07/06 02:28:50;;;;;;;28.10;16.48;;;17.60;99.90;;;;;;4974228;28;20658;-88
2021/07/06 02:31:16;;;;;;;23.02;15.57;;;17.50;99.90;;;;;;4973257;28;20186;-88
2021/07/06 02:33:41;;;;;;;30.02;14.30;;;17.50;99.90;;;;;;4973055;28;20573;-87
2021/07/06 02:36:08;;;;;;;21.38;15.10;;;17.40;99.90;;;;;;4972986;28;20309;-87
2021/07/06 02:38:35;;;;;;;19.70;15.00;;;17.40;99.90;;;;;;4973267;28;20182;-87
2021/07/06 02:41:02;;;;;;;21.40;14.20;;;17.30;99.90;;;;;;4972868;28;20695;-87
2021/07/06 02:43:28;;;;;;;20.02;14.95;;;17.30;99.90;;;;;;4973377;28;20265;-88
2021/07/06 02:45:53;;;;;;;22.10;15.10;;;17.30;99.90;;;;;;4973797;28;20218;-88
2021/07/06 02:48:20;;;;;;;21.27;13.82;;;17.30;99.90;;;;;;4974267;28;20183;-88
2021/07/06 02:50:46;;;;;;;21.23;14.98;;;17.30;99.90;;;;;;4972836;28;20179;-88
2021/07/06 02:53:12;;;;;;;25.85;15.32;;;17.30;99.90;;;;;;4957107;28;20186;-88
2021/07/06 02:55:40;;;;;;;22.30;14.70;;;17.30;99.90;;;;;;4974355;28;20293;-87
2021/07/06 02:58:06;;;;;;;26.08;16.10;;;16.60;99.90;;;;;;4972737;28;20217;-88
2021/07/06 03:00:32;;;;;;;23.17;15.05;;;17.20;99.90;;;;;;4974480;28;20265;-88
2021/07/06 03:03:01;;;;;;;22.13;16.00;;;17.20;99.90;;;;;;4956747;28;20289;-88
2021/07/06 03:05:28;;;;;;;25.27;16.05;;;17.30;99.90;;;;;;4973935;28;20209;-88
2021/07/06 03:07:55;;;;;;;19.88;15.23;;;17.30;99.90;;;;;;4957416;28;20742;-88
2021/07/06 03:10:32;;;;;;;24.60;15.48;;;17.30;99.90;;;;;;4960739;28;20178;-88
2021/07/06 03:12:59;;;;;;;21.05;14.50;;;17.40;99.90;;;;;;4977450;28;20620;-88
2021/07/06 03:15:27;;;;;;;24.17;14.82;;;17.40;99.90;;;;;;4977090;28;20183;-87
2021/07/06 03:17:53;;;;;;;20.95;14.93;;;17.40;99.90;;;;;;4977679;28;20207;-87
2021/07/06 03:20:21;;;;;;;19.77;14.68;;;17.50;99.90;;;;;;4977423;28;20541;-87
2021/07/06 03:22:47;;;;;;;25.13;15.68;;;17.50;99.90;;;;;;4979222;28;20186;-87
2021/07/06 03:25:15;;;;;;;22.63;15.07;;;17.50;99.90;;;;;;4978340;28;20592;-87
2021/07/06 03:27:42;;;;;;;25.70;15.77;;;17.50;99.90;;;;;;4978727;28;20266;-88
2021/07/06 03:30:16;;;;;;;25.73;17.17;;;17.50;99.90;;;;;;4975868;28;20189;-87
2021/07/06 03:32:42;;;;;;;24.45;15.45;;;17.60;99.90;;;;;;4976294;28;20188;-87
2021/07/06 03:35:09;;;;;;;24.50;14.98;;;17.60;99.90;;;;;;4976745;28;20178;-87
2021/07/06 03:37:35;;;;;;;20.85;14.65;;;17.70;99.90;;;;;;4975840;28;20269;-87
2021/07/06 03:40:03;;;;;;;25.80;15.27;;;17.70;99.90;;;;;;4975777;28;20548;-87
2021/07/06 03:42:28;;;;;;;26.98;15.40;;;17.80;99.90;;;;;;4977571;28;20621;-86
2021/07/06 03:44:54;;;;;;;20.42;15.80;;;17.80;99.90;;;;;;4975675;28;20236;-87
2021/07/06 03:47:19;;;;;;;26.13;16.20;;;17.90;99.90;;;;;;4977209;28;20620;-87
2021/07/06 03:49:45;;;;;;;23.00;16.48;;;18.00;99.90;;;;;;4975733;28;20543;-87
2021/07/06 03:52:11;;;;;;;23.15;14.77;;;;;;;;;;4975641;28;20647;-86
2021/07/06 03:54:37;;;;;;;22.25;14.63;;;18.10;99.90;;;;;;4975977;28;20185;-86
2021/07/06 03:57:03;;;;;;;18.65;13.73;;;18.10;99.90;;;;;;4976585;28;20207;-85
2021/07/06 03:59:28;;;;;;;18.58;14.27;;;18.20;99.90;;;;;;4975567;28;20187;-86
2021/07/06 04:01:54;;;;;;;20.85;13.80;;;18.20;99.90;;;;;;4959050;28;20186;-86
2021/07/06 04:04:20;;;;;;;16.75;14.10;;;18.30;99.90;;;;;;4975828;28;20261;-86
2021/07/06 04:06:46;;;;;;;18.60;14.30;;;18.40;99.90;;;;;;4975874;28;20648;-85
2021/07/06 04:09:12;;;;;;;21.13;13.25;;;18.50;99.90;;;;;;4976543;28;20285;-86
2021/07/06 04:11:39;;;;;;;19.15;14.00;;;18.60;99.90;;;;;;4976864;28;20183;-86
2021/07/06 04:14:05;;;;;;;15.02;12.00;;;18.70;99.90;;;;;;4976395;28;20214;-86
2021/07/06 04:16:31;;;;;;;26.83;14.05;;;18.70;99.90;;;;;;4975658;28;20249;-86
2021/07/06 04:18:57;;;;;;;20.85;13.48;;;18.80;99.90;;;;;;4974677;28;20182;-86
2021/07/06 04:21:23;;;;;;;27.90;14.30;;;18.90;99.90;;;;;;4976037;28;20178;-86
2021/07/06 04:23:49;;;;;;;17.45;12.63;;;19.00;99.90;;;;;;4976712;28;20177;-87
2021/07/06 04:26:14;;;;;;;19.83;13.05;;;19.00;99.90;;;;;;4959249;28;20190;-86
2021/07/06 04:28:41;;;;;;;15.15;12.13;;;19.00;99.90;;;;;;4975299;28;20186;-86
2021/07/06 04:31:06;;;;;;;16.63;12.05;;;19.00;99.90;;;;;;4974540;28;20285;-86
2021/07/06 04:33:32;;;;;;;20.67;12.88;;;18.90;99.90;;;;;;4974970;28;20282;-86
2021/07/06 04:35:58;;;;;;;20.58;13.45;;;18.90;99.90;;;;;;4974720;28;20183;-85
2021/07/06 04:38:24;;;;;;;18.45;12.70;;;18.90;99.90;;;;;;4975186;28;20305;-85
2021/07/06 04:40:50;;;;;;;18.60;12.93;;;18.90;99.90;;;;;;4974752;28;20688;-85
2021/07/06 04:43:16;;;;;;;20.63;12.70;;;19.00;99.90;;;;;;4975870;28;20178;-85
2021/07/06 04:45:41;;;;;;;24.63;13.18;;;19.00;99.90;;;;;;4975245;28;20206;-86
2021/07/06 04:48:07;;;;;;;19.38;11.98;;;19.10;99.90;;;;;;4975701;28;20183;-85
2021/07/06 04:50:36;;;;;;;15.05;12.40;;;19.30;99.90;;;;;;4975701;28;20272;-85
2021/07/06 04:53:02;;;;;;;19.02;12.15;;;19.50;99.90;;;;;;4975637;28;20175;-86
2021/07/06 04:55:28;;;;;;;28.02;16.30;;;19.60;99.90;;;;;;4976056;28;20183;-85
2021/07/06 04:57:54;;;;;;;22.08;13.25;;;19.80;99.90;;;;;;4975641;28;20214;-86
2021/07/06 05:00:19;;;;;;;21.25;14.63;;;19.90;99.90;;;;;;4974957;28;20187;-85
2021/07/06 05:02:46;;;;;;;18.20;12.48;;;20.00;99.90;;;;;;4974588;28;20190;-86
2021/07/06 05:05:13;;;;;;;22.55;14.88;;;20.10;99.90;;;;;;4974982;28;20489;-86
2021/07/06 05:07:40;;;;;;;21.35;13.68;;;20.30;99.90;;;;;;4974561;28;20196;-88
2021/07/06 05:10:10;;;;;;;18.92;12.73;;;20.40;99.90;;;;;;4974957;28;20668;-86
2021/07/06 05:12:36;;;;;;;19.23;13.50;;;20.50;99.90;;;;;;4974539;28;20175;-86
2021/07/06 05:15:04;;;;;;;16.73;12.30;;;20.60;99.90;;;;;;4973991;28;20679;-85
2021/07/06 05:17:29;;;;;;;17.85;13.02;;;20.70;99.90;;;;;;4973913;28;20210;-86
2021/07/06 05:19:55;;;;;;;17.77;12.93;;;20.90;99.90;;;;;;4975494;28;20190;-87
2021/07/06 05:22:22;;;;;;;16.65;12.13;;;20.90;99.90;;;;;;4957776;28;20205;-88
2021/07/06 05:24:48;;;;;;;18.33;12.60;;;21.10;99.90;;;;;;4974226;28;20265;-88
2021/07/06 05:27:14;;;;;;;18.60;12.00;;;21.20;99.90;;;;;;4973716;28;20182;-87
2021/07/06 05:29:40;;;;;;;20.33;11.55;;;21.30;99.90;;;;;;4974749;28;20185;-88
2021/07/06 05:32:06;;;;;;;18.00;12.02;;;21.40;99.90;;;;;;4974737;28;20182;-87
2021/07/06 05:34:32;;;;;;;15.90;12.35;;;21.50;99.90;;;;;;4975255;28;20217;-87
2021/07/06 05:36:57;;;;;;;21.33;11.85;;;21.60;99.90;;;;;;4974849;28;20638;-87
2021/07/06 05:39:24;;;;;;;19.15;12.25;;;21.70;99.90;;;;;;4974331;28;20190;-86
2021/07/06 05:41:49;;;;;;;14.95;12.50;;;21.80;99.90;;;;;;4957642;28;20265;-86
2021/07/06 05:44:16;;;;;;;16.58;11.27;;;21.90;99.90;;;;;;4957451;28;20593;-89
2021/07/06 05:46:41;;;;;;;14.40;11.68;;;21.80;99.90;;;;;;4957578;28;20637;-85
2021/07/06 05:49:07;;;;;;;16.80;11.98;;;22.00;99.90;;;;;;4974129;28;20238;-86
2021/07/06 05:51:33;;;;;;;16.10;12.18;;;22.10;99.90;;;;;;4974000;28;20179;-87
2021/07/06 05:53:58;;;;;;;20.17;12.40;;;22.20;99.90;;;;;;4972952;28;20545;-87
2021/07/06 05:56:24;;;;;;;15.90;11.75;;;22.30;99.90;;;;;;4955964;28;20232;-86
2021/07/06 05:58:50;;;;;;;20.55;11.55;;;22.40;99.90;;;;;;4972786;28;20175;-86
2021/07/06 06:01:17;;;;;;;13.63;10.82;;;22.40;99.90;;;;;;4956509;28;20187;-86
2021/07/06 06:03:43;;;;;;;27.00;11.88;;;22.60;99.90;;;;;;4976626;28;20210;-86
2021/07/06 06:06:09;;;;;;;14.98;12.52;;;22.70;99.90;;;;;;4976342;28;20632;-86
2021/07/06 06:08:36;;;;;;;18.98;11.45;;;22.80;99.90;;;;;;4973593;28;20180;-85
2021/07/06 06:11:06;;;;;;;19.33;12.30;;;22.40;99.90;;;;;;4973770;28;20171;-83
2021/07/06 06:13:32;;;;;;;14.98;11.90;;;23.00;99.90;;;;;;4974254;28;20182;-86
2021/07/06 06:15:58;;;;;;;22.90;12.98;;;23.00;99.90;;;;;;4974452;28;20179;-86
2021/07/06 06:18:24;;;;;;;18.60;11.27;;;23.10;99.90;;;;;;4973613;28;20224;-86
2021/07/06 06:20:49;;;;;;;28.10;11.00;;;23.20;99.90;;;;;;4956561;28;20182;-87
2021/07/06 06:23:15;;;;;;;16.05;11.25;;;23.30;99.90;;;;;;4972163;28;20179;-87
2021/07/06 06:25:41;;;;;;;16.85;11.15;;;23.30;99.90;;;;;;4972444;28;20190;-84
2021/07/06 06:28:07;;;;;;;18.52;10.35;;;23.40;99.90;;;;;;4970968;28;20194;-84
2021/07/06 06:30:34;;;;;;;14.20;9.55;;;23.50;99.90;;;;;;4971584;28;20178;-86
2021/07/06 06:33:00;;;;;;;12.75;9.80;;;23.60;99.90;;;;;;4955609;28;20290;-85
2021/07/06 06:35:28;;;;;;;12.35;9.77;;;23.60;99.90;;;;;;4972142;28;20194;-86
2021/07/06 06:37:54;;;;;;;14.02;9.50;;;23.70;99.90;;;;;;4970947;28;20246;-86
2021/07/06 06:40:19;;;;;;;19.25;10.45;;;23.80;99.90;;;;;;4971265;28;20186;-84
2021/07/06 06:42:45;;;;;;;13.95;9.75;;;23.80;99.90;;;;;;4971879;28;20559;-84
2021/07/06 06:45:12;;;;;;;10.82;9.32;;;23.90;99.90;;;;;;4975280;28;20663;-84
2021/07/06 06:47:39;;;;;;;13.80;8.73;;;24.00;99.90;;;;;;4975741;28;20183;-85
2021/07/06 06:50:07;;;;;;;10.68;8.07;;;24.00;99.90;;;;;;4976938;28;20179;-86
2021/07/06 06:52:33;;;;;;;11.57;8.40;;;24.20;99.90;;;;;;4977447;28;20182;-87
2021/07/06 06:54:59;;;;;;;12.40;8.77;;;24.30;99.90;;;;;;4975705;28;20183;-85
2021/07/06 06:57:25;;;;;;;14.75;8.13;;;24.40;99.90;;;;;;4975443;28;20694;-85
2021/07/06 06:59:51;;;;;;;13.35;8.57;;;24.40;99.90;;;;;;4975941;28;20183;-85
2021/07/06 07:02:19;;;;;;;17.17;9.43;;;24.50;99.90;;;;;;4976825;28;20186;-85
2021/07/06 07:04:52;;;;;;;12.13;9.07;;;24.60;99.90;;;;;;4976705;28;20206;-86
2021/07/06 07:07:20;;;;;;;18.50;9.55;;;24.70;99.90;;;;;;4975311;28;20186;-85
2021/07/06 07:09:46;;;;;;;12.85;8.80;;;24.80;99.90;;;;;;4977565;28;20179;-85
2021/07/06 07:12:12;;;;;;;16.30;8.98;;;24.90;99.90;;;;;;4977449;28;20182;-86
2021/07/06 07:14:39;;;;;;;16.17;8.75;;;24.90;99.90;;;;;;4975355;28;20237;-86
2021/07/06 07:17:05;;;;;;;22.88;11.98;;;24.90;99.90;;;;;;4974330;28;20219;-86
2021/07/06 07:19:31;;;;;;;10.77;8.45;;;25.00;99.90;;;;;;4976001;28;20179;-86
2021/07/06 07:21:57;;;;;;;10.52;7.43;;;25.00;99.90;;;;;;4977420;28;20687;-86
2021/07/06 07:24:23;;;;;;;13.85;10.43;;;25.00;99.90;;;;;;4976329;28;20538;-86
2021/07/06 07:26:49;;;;;;;17.33;7.78;;;25.10;99.90;;;;;;4975188;28;20289;-86
2021/07/06 07:29:16;;;;;;;12.75;9.30;;;25.00;99.90;;;;;;4974570;28;20637;-85
2021/07/06 07:31:42;;;;;;;10.18;7.95;;;;;;;;;;4974969;28;20182;-86
2021/07/06 07:34:08;;;;;;;13.40;8.07;;;25.20;99.90;;;;;;4975230;28;20186;-85
2021/07/06 07:36:34;;;;;;;13.23;7.95;;;25.30;99.90;;;;;;4974364;28;20226;-86
2021/07/06 07:39:00;;;;;;;12.55;8.73;;;25.40;99.90;;;;;;4977668;28;20628;-86
2021/07/06 07:41:26;;;;;;;15.35;9.25;;;25.50;99.90;;;;;;4977034;28;20286;-85
2021/07/06 07:43:54;;;;;;;11.88;8.13;;;25.60;99.90;;;;;;4976272;28;20265;-86
2021/07/06 07:46:25;;;;;;;12.38;8.48;;;25.70;99.90;;;;;;4976207;28;20187;-86
2021/07/06 07:48:50;;;;;;;10.30;7.88;;;25.80;99.90;;;;;;4977061;28;20202;-86
2021/07/06 07:51:17;;;;;;;19.70;12.25;;;25.80;99.90;;;;;;4976524;28;20207;-86
2021/07/06 07:53:43;;;;;;;20.02;11.85;;;25.90;99.90;;;;;;4976055;28;20229;-86
2021/07/06 07:56:14;;;;;;;13.38;7.63;;;25.90;99.90;;;;;;4976129;28;20186;-85
2021/07/06 07:58:40;;;;;;;11.82;7.90;;;25.80;99.90;;;;;;4975689;28;20191;-86
2021/07/06 08:01:06;;;;;;;17.95;10.80;;;25.80;99.90;;;;;;4975780;28;20186;-85
2021/07/06 08:03:32;;;;;;;11.07;7.90;;;25.80;99.90;;;;;;4976365;28;20178;-86
2021/07/06 08:05:58;;;;;;;12.68;7.57;;;25.90;99.90;;;;;;4959561;28;20202;-86
2021/07/06 08:08:25;;;;;;;14.40;7.72;;;25.90;99.90;;;;;;4976751;28;20245;-86
2021/07/06 08:10:54;;;;;;;16.48;8.02;;;26.20;99.90;;;;;;4976783;28;20186;-84
2021/07/06 08:13:25;;;;;;;13.77;9.63;;;26.20;99.90;;;;;;4976641;28;20202;-84
2021/07/06 08:15:52;;;;;;;14.70;9.35;;;26.30;99.90;;;;;;4976771;28;20181;-87
2021/07/06 08:18:19;;;;;;;16.80;9.85;;;26.30;99.90;;;;;;4976319;28;20203;-87
2021/07/06 08:20:46;;;;;;;16.08;9.45;;;26.30;99.90;;;;;;4975312;28;20269;-85
2021/07/06 08:23:12;;;;;;;13.25;9.27;;;26.40;99.90;;;;;;4959413;28;20210;-85
2021/07/06 08:25:38;;;;;;;15.73;9.23;;;26.40;99.90;;;;;;4976078;28;20974;-85
2021/07/06 08:28:04;;;;;;;14.85;10.07;;;26.50;99.90;;;;;;4976288;28;20266;-85
2021/07/06 08:30:30;;;;;;;14.05;9.75;;;26.40;99.90;;;;;;4975309;28;20211;-85
2021/07/06 08:32:56;;;;;;;12.57;7.72;;;26.40;99.90;;;;;;4976593;28;20233;-85
2021/07/06 08:35:22;;;;;;;14.50;7.95;;;26.40;99.90;;;;;;4975965;28;20179;-86
2021/07/06 08:37:47;;;;;;;10.60;7.57;;;26.50;99.90;;;;;;4976002;28;20230;-85
2021/07/06 08:40:14;;;;;;;9.25;7.65;;;26.60;99.90;;;;;;4975263;28;20186;-85
2021/07/06 08:42:40;;;;;;;10.27;8.32;;;26.60;99.90;;;;;;4974691;28;20628;-85
2021/07/06 08:45:11;;;;;;;11.13;8.35;;;26.70;99.90;;;;;;4976023;28;20249;-85
2021/07/06 08:47:38;;;;;;;8.77;7.57;;;26.80;99.90;;;;;;4975843;28;20302;-85
2021/07/06 08:50:06;;;;;;;9.88;7.35;;;26.80;99.90;;;;;;4975290;28;20636;-85
2021/07/06 08:52:35;;;;;;;10.48;7.55;;;26.80;99.90;;;;;;4957112;28;20178;-86
2021/07/06 08:55:01;;;;;;;9.68;8.15;;;26.80;99.90;;;;;;4975269;28;20201;-86
2021/07/06 08:57:27;;;;;;;9.70;7.28;;;26.70;99.90;;;;;;4973745;28;20719;-84
2021/07/06 08:59:52;;;;;;;9.93;6.82;;;26.60;99.90;;;;;;4973506;28;20631;-85
2021/07/06 09:02:22;;;;;;;10.02;7.40;;;26.60;99.90;;;;;;4957680;28;20186;-85
2021/07/06 09:04:52;;;;;;;16.60;8.10;;;26.70;99.90;;;;;;4974985;28;20225;-85
2021/07/06 09:07:19;;;;;;;12.68;7.88;;;26.90;99.90;;;;;;4975571;28;20258;-84
2021/07/06 09:09:45;;;;;;;11.10;8.35;;;27.00;99.90;;;;;;4975743;28;20234;-85
2021/07/06 09:12:12;;;;;;;9.98;8.60;;;27.20;99.90;;;;;;4976353;28;20189;-85
2021/07/06 09:14:46;;;;;;;13.95;8.32;;;27.20;99.90;;;;;;4975324;28;20182;-85
2021/07/06 09:17:14;;;;;;;11.43;8.27;;;27.30;99.90;;;;;;4975927;28;20207;-85
2021/07/06 09:19:50;;;;;;;11.02;7.68;;;27.30;99.90;;;;;;4975326;28;20257;-85
2021/07/06 09:22:24;;;;;;;14.15;7.22;;;27.30;99.90;;;;;;4974809;28;20178;-85
2021/07/06 09:25:26;;;;;;;10.30;6.63;;;27.40;99.90;;;;;;4975477;28;20190;-85
2021/07/06 09:27:52;;;;;;;7.47;6.78;;;27.50;99.90;;;;;;4966007;28;20201;-85
2021/07/06 09:30:22;;;;;;;7.78;6.68;;;27.40;99.90;;;;;;4975510;28;20190;-85
2021/07/06 09:32:53;;;;;;;8.05;6.55;;;27.30;99.90;;;;;;4978265;28;20175;-85
2021/07/06 09:35:25;;;;;;;8.43;6.45;;;27.30;99.90;;;;;;4975352;28;20182;-84
2021/07/06 09:38:02;;;;;;;9.55;6.20;;;27.20;99.90;;;;;;4973819;28;20253;-85
2021/07/06 09:40:41;;;;;;;11.55;6.88;;;27.30;99.70;;;;;;4975127;28;20225;-85
2021/07/06 09:43:26;;;;;;;9.13;6.30;;;27.50;99.90;;;;;;4975472;28;20179;-84
2021/07/06 09:46:11;;;;;;;10.43;7.15;;;27.60;99.30;;;;;;4974821;28;20179;-84
2021/07/06 09:48:43;;;;;;;9.70;6.95;;;27.90;99.80;;;;;;4975063;28;20636;-86
2021/07/06 09:51:15;;;;;;;7.53;6.72;;;28.00;99.70;;;;;;4980160;28;20237;-84
2021/07/06 09:53:44;;;;;;;8.77;7.45;;;28.10;99.90;;;;;;4982169;28;20179;-83
2021/07/06 09:56:15;;;;;;;7.72;6.93;;;28.30;99.90;;;;;;4985035;28;20174;-85
2021/07/06 09:58:52;;;;;;;8.63;6.13;;;28.30;99.90;;;;;;4975139;28;20570;-84
2021/07/06 10:01:18;;;;;;;14.02;7.57;;;28.30;99.50;;;;;;4974963;28;20181;-84
2021/07/06 10:03:44;;;;;;;10.48;6.75;;;28.30;99.90;;;;;;4973339;28;20178;-83
2021/07/06 10:06:12;;;;;;;10.40;7.25;;;28.40;99.20;;;;;;4973484;28;20187;-85
2021/07/06 10:08:38;;;;;;;9.35;6.90;;;28.30;99.90;;;;;;4974589;28;20182;-84
2021/07/06 10:11:04;;;;;;;10.70;6.68;;;28.00;99.90;;;;;;4972250;28;20336;-84
2021/07/06 10:13:30;;;;;;;10.30;7.13;;;27.90;99.00;;;;;;4973677;28;20261;-84
2021/07/06 10:15:56;;;;;;;13.93;6.25;;;27.90;98.90;;;;;;4972424;28;20210;-84
2021/07/06 10:18:22;;;;;;;8.82;6.50;;;28.00;98.40;;;;;;4970105;28;20695;-84
2021/07/06 10:20:48;;;;;;;11.95;7.38;;;28.10;98.40;;;;;;4973279;28;20187;-86
2021/07/06 10:23:14;;;;;;;8.50;6.57;;;28.30;99.80;;;;;;4972673;28;20236;-85
2021/07/06 10:25:40;;;;;;;6.90;6.20;;;28.50;96.70;;;;;;4973540;28;20201;-85
2021/07/06 10:28:13;;;;;;;7.82;6.18;;;28.50;95.90;;;;;;4955746;28;20186;-85
2021/07/06 10:30:49;;;;;;;10.98;7.38;;;28.50;94.80;;;;;;4971206;28;20253;-85
2021/07/06 10:33:27;;;;;;;9.13;6.53;;;28.50;96.70;;;;;;4973218;28;20166;-84
2021/07/06 10:35:53;;;;;;;8.00;6.10;;;28.60;95.10;;;;;;4974391;28;20199;-86
2021/07/06 10:40:58;;;;;;;6.88;6.15;;;28.70;93.20;;;;;;4973248;28;20647;-85
2021/07/06 10:43:32;;;;;;;7.63;6.47;;;28.80;95.10;;;;;;4973797;28;20182;-85
2021/07/06 10:46:19;;;;;;;8.05;6.00;;;28.90;94.70;;;;;;4971178;28;20178;-86
2021/07/06 10:48:46;;;;;;;6.68;6.00;;;29.00;94.40;;;;;;4973407;28;20185;-85
2021/07/06 10:51:34;;;;;;;8.30;5.78;;;28.80;93.30;;;;;;4971745;28;20546;-85
2021/07/06 10:54:30;;;;;;;8.65;5.95;;;28.80;92.70;;;;;;4970445;28;20185;-86
2021/07/06 10:56:57;;;;;;;6.78;6.07;;;28.50;92.00;;;;;;4985242;28;20715;-85
2021/07/06 10:59:35;;;;;;;7.00;6.13;;;28.60;93.70;;;;;;4972205;28;20641;-84
2021/07/06 11:02:07;;;;;;;8.63;6.10;;;28.80;94.30;;;;;;4971334;28;20640;-86
2021/07/06 11:04:40;;;;;;;12.68;6.50;;;29.20;93.00;;;;;;4972842;28;20636;-85
2021/07/06 11:07:13;;;;;;;7.75;6.03;;;29.00;91.40;;;;;;4972466;28;20195;-85
2021/07/06 11:09:38;;;;;;;12.88;5.95;;;29.10;92.30;;;;;;4970354;28;20182;-86
2021/07/06 11:12:23;;;;;;;9.32;6.07;;;29.10;93.10;;;;;;4972909;28;20190;-84
2021/07/06 11:14:52;;;;;;;12.25;6.22;;;29.30;93.10;;;;;;4971673;28;20174;-84
2021/07/06 11:17:37;;;;;;;8.18;5.45;;;29.60;92.70;;;;;;4973290;28;20292;-85
2021/07/06 11:20:06;;;;;;;8.30;6.20;;;29.70;90.00;;;;;;4973165;28;20229;-85
2021/07/06 11:23:01;;;;;;;8.48;5.93;;;29.30;88.30;;;;;;4972902;28;20640;-85
2021/07/06 11:25:31;;;;;;;8.20;5.72;;;29.00;87.90;;;;;;4971421;28;20171;-85
2021/07/06 11:27:59;;;;;;;6.72;5.78;;;29.00;88.50;;;;;;4972100;28;20244;-85
2021/07/06 11:30:33;;;;;;;7.53;5.57;;;29.00;87.70;;;;;;4976456;28;20254;-85
2021/07/06 11:33:06;;;;;;;6.07;5.47;;;28.90;87.00;;;;;;4975679;28;20202;-86
2021/07/06 11:35:38;;;;;;;7.68;5.82;;;28.90;85.80;;;;;;4977073;28;20202;-83
2021/07/06 11:38:06;;;;;;;6.20;5.60;;;28.90;85.50;;;;;;4981977;28;20226;-84
2021/07/06 11:40:33;;;;;;;11.32;5.88;;;28.90;86.10;;;;;;4987691;28;20182;-84
2021/07/06 11:43:00;;;;;;;8.10;5.82;;;28.90;86.50;;;;;;4985114;28;20194;-84
2021/07/06 11:45:26;;;;;;;5.72;5.18;;;29.00;87.20;;;;;;4984829;28;20199;-84
2021/07/06 11:48:04;;;;;;;9.45;5.43;;;29.10;82.10;;;;;;4976476;28;20190;-86
2021/07/06 11:50:30;;;;;;;7.55;5.03;;;29.30;83.00;;;;;;4975179;28;20202;-84
2021/07/06 11:52:57;;;;;;;6.75;5.13;;;29.30;83.20;;;;;;4976609;28;20613;-84
2021/07/06 11:55:29;;;;;;;5.95;5.35;;;29.20;80.20;;;;;;4974867;28;20186;-85
2021/07/06 11:57:56;;;;;;;19.45;6.65;;;29.20;82.80;;;;;;4975342;28;20217;-85
2021/07/06 12:00:24;;;;;;;5.80;5.20;;;29.10;83.90;;;;;;4976515;28;20639;-85
2021/07/06 12:03:16;;;;;;;6.50;5.88;;;29.10;84.60;;;;;;4976519;28;20667;-85
2021/07/06 12:05:43;;;;;;;5.80;5.20;;;29.40;89.00;;;;;;4976588;28;20170;-84
2021/07/06 12:08:20;;;;;;;8.50;6.13;;;29.50;82.50;;;;;;4976501;28;20217;-85
2021/07/06 12:11:05;;;;;;;18.92;6.40;;;29.50;83.40;;;;;;4975798;28;20178;-85
2021/07/06 12:13:50;;;;;;;7.07;6.38;;;29.20;83.50;;;;;;4973058;28;20620;-86
2021/07/06 12:16:21;;;;;;;8.48;6.28;;;29.10;82.80;;;;;;4972234;28;20253;-86
2021/07/06 12:18:53;;;;;;;7.22;6.47;;;29.10;83.60;;;;;;4975732;28;20213;-85
2021/07/06 12:21:45;;;;;;;10.75;6.35;;;28.90;85.00;;;;;;4975157;28;20181;-85
2021/07/06 12:24:13;;;;;;;7.43;6.63;;;28.90;84.30;;;;;;4972355;28;20175;-85
2021/07/06 12:26:40;;;;;;;9.88;7.38;;;29.00;86.10;;;;;;4975924;28;20751;-86
2021/07/06 12:29:06;;;;;;;10.95;6.80;;;28.90;85.10;;;;;;4975556;28;20217;-86
2021/07/06 12:31:37;;;;;;;7.78;6.45;;;28.90;84.00;;;;;;4974292;28;20203;-85
2021/07/06 12:34:06;;;;;;;7.30;6.55;;;28.80;86.70;;;;;;4975146;28;20242;-85
2021/07/06 12:36:37;;;;;;;9.10;7.15;;;28.90;86.60;;;;;;4974863;28;20313;-85
2021/07/06 12:39:16;;;;;;;8.55;7.22;;;28.90;87.20;;;;;;4975260;28;20171;-85
2021/07/06 12:41:45;;;;;;;9.40;7.40;;;28.80;87.10;;;;;;4974857;28;20635;-84
2021/07/06 12:44:11;;;;;;;9.20;7.65;;;28.80;90.00;;;;;;4976041;28;20171;-85